sensor_id;sensor_type;location;lat;lon;timestamp;P1;durP1;ratioP1;P2;durP2;ratioP2
11039;SDS011;5573;49.592;8.662;2022-11-15T00:00:48;407.95;;;384.80;;
11039;SDS011;5573;49.592;8.662;2022-11-15T00:03:55;415.15;;;392.52;;
11039;SDS011;5573;49.592;8.662;2022-11-15T00:07:02;380.63;;;359.75;;
11039;SDS011;5573;49.592;8.662;2022-11-15T00:10:09;383.98;;;362.65;;
11039;SDS011;5573;49.592;8.662;2022-11-15T00:13:15;381.73;;;360.95;;
11039;SDS011;5573;49.592;8.662;2022-11-15T00:16:23;361.05;;;340.58;;
11039;SDS011;5573;49.592;8.662;2022-11-15T00:19:30;367.90;;;347.13;;
11039;SDS011;5573;49.592;8.662;2022-11-15T00:22:37;368.88;;;348.55;;
11039;SDS011;5573;49.592;8.662;2022-11-15T00:25:44;361.73;;;341.73;;
11039;SDS011;5573;49.592;8.662;2022-11-15T00:28:51;375.55;;;354.52;;
11039;SDS011;5573;49.592;8.662;2022-11-15T00:31:59;405.50;;;382.80;;
11039;SDS011;5573;49.592;8.662;2022-11-15T00:35:06;391.35;;;369.30;;
11039;SDS011;5573;49.592;8.662;2022-11-15T00:38:13;397.45;;;375.05;;
11039;SDS011;5573;49.592;8.662;2022-11-15T00:41:20;425.77;;;402.35;;
11039;SDS011;5573;49.592;8.662;2022-11-15T00:44:26;413.00;;;389.70;;
11039;SDS011;5573;49.592;8.662;2022-11-15T00:47:34;419.13;;;395.80;;
11039;SDS011;5573;49.592;8.662;2022-11-15T00:50:40;446.48;;;421.40;;
11039;SDS011;5573;49.592;8.662;2022-11-15T00:53:47;416.25;;;392.40;;
11039;SDS011;5573;49.592;8.662;2022-11-15T00:56:54;417.60;;;394.00;;
11039;SDS011;5573;49.592;8.662;2022-11-15T01:00:00;421.40;;;397.90;;
11039;SDS011;5573;49.592;8.662;2022-11-15T01:03:08;448.70;;;423.23;;
11039;SDS011;5573;49.592;8.662;2022-11-15T01:06:14;419.05;;;395.08;;
11039;SDS011;5573;49.592;8.662;2022-11-15T01:09:21;417.05;;;393.27;;
11039;SDS011;5573;49.592;8.662;2022-11-15T01:12:28;421.02;;;397.20;;
11039;SDS011;5573;49.592;8.662;2022-11-15T01:15:38;378.90;;;357.35;;
11039;SDS011;5573;49.592;8.662;2022-11-15T01:18:46;413.13;;;390.50;;
11039;SDS011;5573;49.592;8.662;2022-11-15T01:21:53;409.27;;;386.08;;
11039;SDS011;5573;49.592;8.662;2022-11-15T01:24:59;391.13;;;369.02;;
11039;SDS011;5573;49.592;8.662;2022-11-15T01:28:06;416.02;;;392.70;;
11039;SDS011;5573;49.592;8.662;2022-11-15T01:31:13;383.27;;;361.52;;
11039;SDS011;5573;49.592;8.662;2022-11-15T01:34:23;408.98;;;385.48;;
11039;SDS011;5573;49.592;8.662;2022-11-15T01:37:29;385.73;;;363.77;;
11039;SDS011;5573;49.592;8.662;2022-11-15T01:40:36;397.58;;;375.23;;
11039;SDS011;5573;49.592;8.662;2022-11-15T01:43:42;408.23;;;385.05;;
11039;SDS011;5573;49.592;8.662;2022-11-15T01:46:49;395.88;;;373.38;;
11039;SDS011;5573;49.592;8.662;2022-11-15T01:49:58;390.52;;;368.63;;
11039;SDS011;5573;49.592;8.662;2022-11-15T01:53:08;403.92;;;381.17;;
11039;SDS011;5573;49.592;8.662;2022-11-15T01:56:16;401.77;;;379.27;;
11039;SDS011;5573;49.592;8.662;2022-11-15T01:59:31;391.23;;;369.48;;
11039;SDS011;5573;49.592;8.662;2022-11-15T02:02:38;398.13;;;375.38;;
11039;SDS011;5573;49.592;8.662;2022-11-15T02:05:46;398.70;;;376.15;;
11039;SDS011;5573;49.592;8.662;2022-11-15T02:08:53;399.70;;;377.73;;
11039;SDS011;5573;49.592;8.662;2022-11-15T02:12:02;384.73;;;362.98;;
11039;SDS011;5573;49.592;8.662;2022-11-15T02:15:10;380.98;;;359.48;;
11039;SDS011;5573;49.592;8.662;2022-11-15T02:18:18;386.42;;;364.48;;
11039;SDS011;5573;49.592;8.662;2022-11-15T02:21:34;389.33;;;367.40;;
11039;SDS011;5573;49.592;8.662;2022-11-15T02:24:57;370.13;;;349.70;;
11039;SDS011;5573;49.592;8.662;2022-11-15T02:31:54;324.73;;;306.70;;
11039;SDS011;5573;49.592;8.662;2022-11-15T02:35:10;344.67;;;325.80;;
11039;SDS011;5573;49.592;8.662;2022-11-15T02:38:22;351.05;;;330.95;;
11039;SDS011;5573;49.592;8.662;2022-11-15T02:41:39;342.80;;;323.48;;
11039;SDS011;5573;49.592;8.662;2022-11-15T02:44:52;327.90;;;309.88;;
11039;SDS011;5573;49.592;8.662;2022-11-15T02:48:03;340.10;;;321.15;;
11039;SDS011;5573;49.592;8.662;2022-11-15T02:51:11;306.55;;;289.35;;
11039;SDS011;5573;49.592;8.662;2022-11-15T02:54:20;318.80;;;300.83;;
11039;SDS011;5573;49.592;8.662;2022-11-15T02:57:30;300.30;;;283.92;;
11039;SDS011;5573;49.592;8.662;2022-11-15T03:00:51;269.02;;;254.27;;
11039;SDS011;5573;49.592;8.662;2022-11-15T03:04:10;305.92;;;288.90;;
11039;SDS011;5573;49.592;8.662;2022-11-15T03:07:28;306.55;;;289.52;;
11039;SDS011;5573;49.592;8.662;2022-11-15T03:10:42;285.35;;;269.23;;
11039;SDS011;5573;49.592;8.662;2022-11-15T03:13:56;295.90;;;279.48;;
11039;SDS011;5573;49.592;8.662;2022-11-15T03:17:06;273.08;;;258.40;;
11039;SDS011;5573;49.592;8.662;2022-11-15T03:20:23;264.98;;;250.45;;
11039;SDS011;5573;49.592;8.662;2022-11-15T03:23:32;267.25;;;252.45;;
11039;SDS011;5573;49.592;8.662;2022-11-15T03:26:41;290.15;;;273.67;;
11039;SDS011;5573;49.592;8.662;2022-11-15T03:29:52;255.25;;;241.13;;
11039;SDS011;5573;49.592;8.662;2022-11-15T03:33:03;278.42;;;263.13;;
11039;SDS011;5573;49.592;8.662;2022-11-15T03:36:12;265.20;;;250.68;;
11039;SDS011;5573;49.592;8.662;2022-11-15T03:39:20;282.77;;;267.30;;
11039;SDS011;5573;49.592;8.662;2022-11-15T03:42:28;281.92;;;266.25;;
11039;SDS011;5573;49.592;8.662;2022-11-15T03:45:39;257.90;;;243.93;;
11039;SDS011;5573;49.592;8.662;2022-11-15T03:48:52;285.50;;;269.88;;
11039;SDS011;5573;49.592;8.662;2022-11-15T03:52:04;283.98;;;268.27;;
11039;SDS011;5573;49.592;8.662;2022-11-15T03:55:14;281.95;;;266.83;;
11039;SDS011;5573;49.592;8.662;2022-11-15T03:58:24;273.88;;;259.15;;
11039;SDS011;5573;49.592;8.662;2022-11-15T04:01:30;281.15;;;266.20;;
11039;SDS011;5573;49.592;8.662;2022-11-15T04:04:36;310.02;;;292.98;;
11039;SDS011;5573;49.592;8.662;2022-11-15T04:07:44;307.33;;;289.83;;
11039;SDS011;5573;49.592;8.662;2022-11-15T04:10:51;309.48;;;292.42;;
11039;SDS011;5573;49.592;8.662;2022-11-15T04:13:58;305.45;;;288.55;;
11039;SDS011;5573;49.592;8.662;2022-11-15T04:17:04;291.83;;;275.25;;
11039;SDS011;5573;49.592;8.662;2022-11-15T04:20:12;286.17;;;270.50;;
11039;SDS011;5573;49.592;8.662;2022-11-15T04:23:39;298.27;;;281.70;;
11039;SDS011;5573;49.592;8.662;2022-11-15T04:27:06;288.35;;;272.45;;
11039;SDS011;5573;49.592;8.662;2022-11-15T04:30:13;287.17;;;271.27;;
11039;SDS011;5573;49.592;8.662;2022-11-15T04:33:19;291.52;;;275.05;;
11039;SDS011;5573;49.592;8.662;2022-11-15T04:36:25;303.90;;;286.80;;
11039;SDS011;5573;49.592;8.662;2022-11-15T04:39:51;300.35;;;283.33;;
11039;SDS011;5573;49.592;8.662;2022-11-15T04:42:57;298.10;;;281.55;;
11039;SDS011;5573;49.592;8.662;2022-11-15T04:46:08;310.45;;;293.40;;
11039;SDS011;5573;49.592;8.662;2022-11-15T04:49:15;318.73;;;300.80;;
11039;SDS011;5573;49.592;8.662;2022-11-15T04:52:21;296.48;;;280.02;;
11039;SDS011;5573;49.592;8.662;2022-11-15T04:55:29;297.10;;;280.50;;
11039;SDS011;5573;49.592;8.662;2022-11-15T04:58:35;301.15;;;284.27;;
11039;SDS011;5573;49.592;8.662;2022-11-15T05:01:41;314.42;;;296.70;;
11039;SDS011;5573;49.592;8.662;2022-11-15T05:04:49;296.38;;;279.73;;
11039;SDS011;5573;49.592;8.662;2022-11-15T05:07:54;309.90;;;292.55;;
11039;SDS011;5573;49.592;8.662;2022-11-15T05:11:02;315.10;;;297.30;;
11039;SDS011;5573;49.592;8.662;2022-11-15T05:14:09;287.35;;;271.52;;
11039;SDS011;5573;49.592;8.662;2022-11-15T05:17:15;295.52;;;279.42;;
11039;SDS011;5573;49.592;8.662;2022-11-15T05:20:22;314.92;;;297.45;;
11039;SDS011;5573;49.592;8.662;2022-11-15T05:23:28;308.48;;;291.15;;
11039;SDS011;5573;49.592;8.662;2022-11-15T05:26:37;299.80;;;282.35;;
11039;SDS011;5573;49.592;8.662;2022-11-15T05:29:43;314.40;;;296.95;;
11039;SDS011;5573;49.592;8.662;2022-11-15T05:32:50;298.38;;;281.00;;
11039;SDS011;5573;49.592;8.662;2022-11-15T05:35:58;298.83;;;281.98;;
11039;SDS011;5573;49.592;8.662;2022-11-15T05:39:08;310.08;;;292.95;;
11039;SDS011;5573;49.592;8.662;2022-11-15T05:42:16;294.15;;;277.42;;
11039;SDS011;5573;49.592;8.662;2022-11-15T05:45:23;317.30;;;299.42;;
11039;SDS011;5573;49.592;8.662;2022-11-15T05:48:31;303.70;;;286.67;;
11039;SDS011;5573;49.592;8.662;2022-11-15T05:51:40;303.35;;;286.55;;
11039;SDS011;5573;49.592;8.662;2022-11-15T05:54:49;291.88;;;276.00;;
11039;SDS011;5573;49.592;8.662;2022-11-15T05:57:58;296.10;;;279.65;;
11039;SDS011;5573;49.592;8.662;2022-11-15T06:01:05;289.13;;;273.25;;
11039;SDS011;5573;49.592;8.662;2022-11-15T06:04:11;290.15;;;274.40;;
11039;SDS011;5573;49.592;8.662;2022-11-15T06:07:18;307.13;;;290.27;;
11039;SDS011;5573;49.592;8.662;2022-11-15T06:10:24;293.90;;;277.45;;
11039;SDS011;5573;49.592;8.662;2022-11-15T06:13:32;297.38;;;280.17;;
11039;SDS011;5573;49.592;8.662;2022-11-15T06:16:39;289.10;;;273.17;;
11039;SDS011;5573;49.592;8.662;2022-11-15T06:19:45;278.75;;;263.60;;
11039;SDS011;5573;49.592;8.662;2022-11-15T06:22:55;299.45;;;282.83;;
11039;SDS011;5573;49.592;8.662;2022-11-15T06:26:03;291.70;;;275.30;;
11039;SDS011;5573;49.592;8.662;2022-11-15T06:29:11;302.65;;;286.25;;
11039;SDS011;5573;49.592;8.662;2022-11-15T06:32:17;288.73;;;272.63;;
11039;SDS011;5573;49.592;8.662;2022-11-15T06:35:23;285.63;;;269.98;;
11039;SDS011;5573;49.592;8.662;2022-11-15T06:38:30;279.42;;;263.52;;
11039;SDS011;5573;49.592;8.662;2022-11-15T06:41:36;294.50;;;278.02;;
11039;SDS011;5573;49.592;8.662;2022-11-15T06:44:44;283.88;;;267.88;;
11039;SDS011;5573;49.592;8.662;2022-11-15T06:47:50;285.20;;;269.38;;
11039;SDS011;5573;49.592;8.662;2022-11-15T06:50:58;293.90;;;277.90;;
11039;SDS011;5573;49.592;8.662;2022-11-15T06:54:06;295.95;;;279.40;;
11039;SDS011;5573;49.592;8.662;2022-11-15T06:57:13;297.00;;;280.27;;
11039;SDS011;5573;49.592;8.662;2022-11-15T07:00:21;283.48;;;267.65;;
11039;SDS011;5573;49.592;8.662;2022-11-15T07:03:28;288.33;;;272.70;;
11039;SDS011;5573;49.592;8.662;2022-11-15T07:06:15;311.88;;;293.92;;
11039;SDS011;5573;49.592;8.662;2022-11-15T07:09:02;322.95;;;304.70;;
11039;SDS011;5573;49.592;8.662;2022-11-15T07:11:48;306.45;;;289.13;;
11039;SDS011;5573;49.592;8.662;2022-11-15T07:14:34;300.40;;;284.10;;
11039;SDS011;5573;49.592;8.662;2022-11-15T07:17:22;293.52;;;276.90;;
11039;SDS011;5573;49.592;8.662;2022-11-15T07:20:08;315.33;;;297.38;;
11039;SDS011;5573;49.592;8.662;2022-11-15T07:22:59;315.58;;;297.77;;
11039;SDS011;5573;49.592;8.662;2022-11-15T07:25:47;326.30;;;308.02;;
11039;SDS011;5573;49.592;8.662;2022-11-15T07:28:33;333.02;;;314.35;;
11039;SDS011;5573;49.592;8.662;2022-11-15T07:31:20;319.20;;;301.38;;
11039;SDS011;5573;49.592;8.662;2022-11-15T07:34:08;309.10;;;292.50;;
11039;SDS011;5573;49.592;8.662;2022-11-15T07:36:55;336.30;;;317.55;;
11039;SDS011;5573;49.592;8.662;2022-11-15T07:39:41;320.83;;;302.73;;
11039;SDS011;5573;49.592;8.662;2022-11-15T07:42:27;326.20;;;308.02;;
11039;SDS011;5573;49.592;8.662;2022-11-15T07:45:39;319.10;;;301.25;;
11039;SDS011;5573;49.592;8.662;2022-11-15T07:48:26;319.98;;;301.85;;
11039;SDS011;5573;49.592;8.662;2022-11-15T07:51:28;337.80;;;318.58;;
11039;SDS011;5573;49.592;8.662;2022-11-15T07:54:14;321.27;;;303.40;;
11039;SDS011;5573;49.592;8.662;2022-11-15T07:57:01;325.23;;;306.80;;
11039;SDS011;5573;49.592;8.662;2022-11-15T07:59:51;341.23;;;322.50;;
11039;SDS011;5573;49.592;8.662;2022-11-15T08:02:37;348.35;;;327.92;;
11039;SDS011;5573;49.592;8.662;2022-11-15T08:05:24;344.58;;;325.73;;
11039;SDS011;5573;49.592;8.662;2022-11-15T08:08:12;358.80;;;338.38;;
11039;SDS011;5573;49.592;8.662;2022-11-15T08:10:58;375.65;;;354.27;;
11039;SDS011;5573;49.592;8.662;2022-11-15T08:13:45;394.52;;;371.75;;
11039;SDS011;5573;49.592;8.662;2022-11-15T08:16:31;391.52;;;368.38;;
11039;SDS011;5573;49.592;8.662;2022-11-15T08:19:18;400.45;;;377.27;;
11039;SDS011;5573;49.592;8.662;2022-11-15T08:22:04;387.80;;;365.45;;
11039;SDS011;5573;49.592;8.662;2022-11-15T08:24:52;392.80;;;370.60;;
11039;SDS011;5573;49.592;8.662;2022-11-15T08:27:38;397.13;;;374.67;;
11039;SDS011;5573;49.592;8.662;2022-11-15T08:30:25;385.88;;;363.50;;
11039;SDS011;5573;49.592;8.662;2022-11-15T08:33:12;403.77;;;380.23;;
11039;SDS011;5573;49.592;8.662;2022-11-15T08:35:59;412.75;;;389.08;;
11039;SDS011;5573;49.592;8.662;2022-11-15T08:38:46;410.25;;;386.80;;
11039;SDS011;5573;49.592;8.662;2022-11-15T08:41:35;403.02;;;379.73;;
11039;SDS011;5573;49.592;8.662;2022-11-15T08:44:23;424.67;;;401.13;;
11039;SDS011;5573;49.592;8.662;2022-11-15T08:47:09;445.52;;;420.45;;
11039;SDS011;5573;49.592;8.662;2022-11-15T08:49:56;420.83;;;396.83;;
11039;SDS011;5573;49.592;8.662;2022-11-15T08:52:43;437.23;;;412.13;;
11039;SDS011;5573;49.592;8.662;2022-11-15T08:55:29;441.52;;;416.45;;
11039;SDS011;5573;49.592;8.662;2022-11-15T08:58:17;429.65;;;405.13;;
11039;SDS011;5573;49.592;8.662;2022-11-15T09:01:04;426.75;;;402.20;;
11039;SDS011;5573;49.592;8.662;2022-11-15T09:03:51;433.75;;;409.10;;
11039;SDS011;5573;49.592;8.662;2022-11-15T09:06:37;433.40;;;408.27;;
11039;SDS011;5573;49.592;8.662;2022-11-15T09:09:27;437.70;;;413.00;;
11039;SDS011;5573;49.592;8.662;2022-11-15T09:12:13;426.08;;;401.58;;
11039;SDS011;5573;49.592;8.662;2022-11-15T09:15:01;421.80;;;398.05;;
11039;SDS011;5573;49.592;8.662;2022-11-15T09:17:47;413.10;;;390.00;;
11039;SDS011;5573;49.592;8.662;2022-11-15T09:20:34;429.05;;;404.83;;
11039;SDS011;5573;49.592;8.662;2022-11-15T09:23:20;410.52;;;387.10;;
11039;SDS011;5573;49.592;8.662;2022-11-15T09:26:06;411.00;;;387.58;;
11039;SDS011;5573;49.592;8.662;2022-11-15T09:28:53;417.83;;;394.02;;
11039;SDS011;5573;49.592;8.662;2022-11-15T09:31:41;443.80;;;419.13;;
11039;SDS011;5573;49.592;8.662;2022-11-15T09:34:27;437.85;;;413.13;;
11039;SDS011;5573;49.592;8.662;2022-11-15T09:37:13;424.17;;;400.55;;
11039;SDS011;5573;49.592;8.662;2022-11-15T09:40:00;406.45;;;383.70;;
11039;SDS011;5573;49.592;8.662;2022-11-15T09:42:56;426.40;;;402.20;;
11039;SDS011;5573;49.592;8.662;2022-11-15T09:45:53;410.67;;;387.42;;
11039;SDS011;5573;49.592;8.662;2022-11-15T09:48:50;437.27;;;412.23;;
11039;SDS011;5573;49.592;8.662;2022-11-15T09:51:43;429.52;;;404.70;;
11039;SDS011;5573;49.592;8.662;2022-11-15T09:54:20;426.00;;;401.23;;
11039;SDS011;5573;49.592;8.662;2022-11-15T09:57:14;421.85;;;397.70;;
11039;SDS011;5573;49.592;8.662;2022-11-15T09:59:54;450.55;;;424.27;;
11039;SDS011;5573;49.592;8.662;2022-11-15T10:02:56;418.23;;;394.30;;
11039;SDS011;5573;49.592;8.662;2022-11-15T10:05:34;444.33;;;419.05;;
11039;SDS011;5573;49.592;8.662;2022-11-15T10:08:10;454.60;;;428.55;;
11039;SDS011;5573;49.592;8.662;2022-11-15T10:10:49;437.17;;;412.35;;
11039;SDS011;5573;49.592;8.662;2022-11-15T10:13:40;455.45;;;429.63;;
11039;SDS011;5573;49.592;8.662;2022-11-15T10:16:12;433.75;;;408.95;;
11039;SDS011;5573;49.592;8.662;2022-11-15T10:18:53;450.05;;;424.67;;
11039;SDS011;5573;49.592;8.662;2022-11-15T10:21:32;440.88;;;416.15;;
11039;SDS011;5573;49.592;8.662;2022-11-15T10:24:11;441.40;;;415.90;;
11039;SDS011;5573;49.592;8.662;2022-11-15T10:26:44;450.40;;;424.73;;
11039;SDS011;5573;49.592;8.662;2022-11-15T10:29:17;492.60;;;464.48;;
11039;SDS011;5573;49.592;8.662;2022-11-15T10:31:52;469.15;;;442.90;;
11039;SDS011;5573;49.592;8.662;2022-11-15T10:34:20;442.85;;;417.67;;
11039;SDS011;5573;49.592;8.662;2022-11-15T10:36:55;441.48;;;416.13;;
11039;SDS011;5573;49.592;8.662;2022-11-15T10:39:24;460.25;;;434.35;;
11039;SDS011;5573;49.592;8.662;2022-11-15T10:41:53;460.90;;;434.38;;
11039;SDS011;5573;49.592;8.662;2022-11-15T10:44:22;454.75;;;428.23;;
11039;SDS011;5573;49.592;8.662;2022-11-15T10:49:56;447.73;;;422.48;;
11039;SDS011;5573;49.592;8.662;2022-11-15T10:52:27;460.83;;;434.08;;
11039;SDS011;5573;49.592;8.662;2022-11-15T10:54:58;459.02;;;432.98;;
11039;SDS011;5573;49.592;8.662;2022-11-15T10:57:31;463.50;;;436.85;;
11039;SDS011;5573;49.592;8.662;2022-11-15T11:00:03;451.90;;;426.23;;
11039;SDS011;5573;49.592;8.662;2022-11-15T11:02:34;444.23;;;418.73;;
11039;SDS011;5573;49.592;8.662;2022-11-15T11:05:04;436.35;;;411.95;;
11039;SDS011;5573;49.592;8.662;2022-11-15T11:07:35;484.65;;;456.58;;
11039;SDS011;5573;49.592;8.662;2022-11-15T11:10:04;468.15;;;441.48;;
11039;SDS011;5573;49.592;8.662;2022-11-15T11:13:13;450.48;;;424.40;;
11039;SDS011;5573;49.592;8.662;2022-11-15T11:15:42;430.45;;;405.63;;
11039;SDS011;5573;49.592;8.662;2022-11-15T11:18:14;450.67;;;424.63;;
11039;SDS011;5573;49.592;8.662;2022-11-15T11:20:48;467.88;;;441.23;;
11039;SDS011;5573;49.592;8.662;2022-11-15T11:23:25;439.38;;;414.35;;
11039;SDS011;5573;49.592;8.662;2022-11-15T11:26:17;433.73;;;408.83;;
11039;SDS011;5573;49.592;8.662;2022-11-15T11:29:00;460.25;;;434.00;;
11039;SDS011;5573;49.592;8.662;2022-11-15T11:31:36;462.08;;;435.75;;
11039;SDS011;5573;49.592;8.662;2022-11-15T11:34:13;442.73;;;417.45;;
11039;SDS011;5573;49.592;8.662;2022-11-15T11:36:50;452.75;;;426.55;;
11039;SDS011;5573;49.592;8.662;2022-11-15T11:39:31;434.50;;;409.65;;
11039;SDS011;5573;49.592;8.662;2022-11-15T11:42:13;470.25;;;443.30;;
11039;SDS011;5573;49.592;8.662;2022-11-15T11:44:52;443.88;;;418.15;;
11039;SDS011;5573;49.592;8.662;2022-11-15T11:47:35;438.35;;;413.05;;
11039;SDS011;5573;49.592;8.662;2022-11-15T11:50:10;452.63;;;426.60;;
11039;SDS011;5573;49.592;8.662;2022-11-15T11:52:42;446.20;;;420.55;;
11039;SDS011;5573;49.592;8.662;2022-11-15T11:55:18;463.80;;;436.60;;
11039;SDS011;5573;49.592;8.662;2022-11-15T11:57:51;477.08;;;449.70;;
11039;SDS011;5573;49.592;8.662;2022-11-15T12:00:24;421.73;;;397.85;;
11039;SDS011;5573;49.592;8.662;2022-11-15T12:03:00;448.40;;;423.73;;
11039;SDS011;5573;49.592;8.662;2022-11-15T12:05:34;410.80;;;387.98;;
11039;SDS011;5573;49.592;8.662;2022-11-15T12:08:14;379.98;;;358.42;;
11039;SDS011;5573;49.592;8.662;2022-11-15T12:10:53;412.15;;;389.23;;
11039;SDS011;5573;49.592;8.662;2022-11-15T12:13:26;414.30;;;390.75;;
11039;SDS011;5573;49.592;8.662;2022-11-15T12:16:02;430.52;;;405.85;;
11039;SDS011;5573;49.592;8.662;2022-11-15T12:18:36;439.58;;;414.55;;
11039;SDS011;5573;49.592;8.662;2022-11-15T12:21:05;415.27;;;391.70;;
11039;SDS011;5573;49.592;8.662;2022-11-15T12:23:37;404.83;;;381.88;;
11039;SDS011;5573;49.592;8.662;2022-11-15T12:26:11;388.92;;;367.55;;
11039;SDS011;5573;49.592;8.662;2022-11-15T12:28:45;416.60;;;393.52;;
11039;SDS011;5573;49.592;8.662;2022-11-15T12:31:35;399.33;;;377.52;;
11039;SDS011;5573;49.592;8.662;2022-11-15T12:34:12;408.63;;;385.95;;
11039;SDS011;5573;49.592;8.662;2022-11-15T12:36:56;382.35;;;361.20;;
11039;SDS011;5573;49.592;8.662;2022-11-15T12:42:42;396.10;;;374.20;;
11039;SDS011;5573;49.592;8.662;2022-11-15T12:45:24;409.10;;;385.40;;
11039;SDS011;5573;49.592;8.662;2022-11-15T12:47:56;425.92;;;402.08;;
11039;SDS011;5573;49.592;8.662;2022-11-15T12:50:54;398.40;;;376.05;;
11039;SDS011;5573;49.592;8.662;2022-11-15T12:53:25;432.83;;;407.88;;
11039;SDS011;5573;49.592;8.662;2022-11-15T12:56:16;423.13;;;399.73;;
11039;SDS011;5573;49.592;8.662;2022-11-15T12:58:52;408.02;;;385.13;;
11039;SDS011;5573;49.592;8.662;2022-11-15T13:04:27;423.67;;;399.77;;
11039;SDS011;5573;49.592;8.662;2022-11-15T13:06:57;434.48;;;409.42;;
11039;SDS011;5573;49.592;8.662;2022-11-15T13:15:31;438.13;;;413.58;;
11039;SDS011;5573;49.592;8.662;2022-11-15T13:21:01;434.45;;;409.55;;
11039;SDS011;5573;49.592;8.662;2022-11-15T13:23:55;405.73;;;383.55;;
11039;SDS011;5573;49.592;8.662;2022-11-15T13:26:23;406.90;;;384.30;;
11039;SDS011;5573;49.592;8.662;2022-11-15T13:28:51;430.52;;;406.65;;
11039;SDS011;5573;49.592;8.662;2022-11-15T13:31:24;439.83;;;414.85;;
11039;SDS011;5573;49.592;8.662;2022-11-15T13:33:56;432.48;;;407.55;;
11039;SDS011;5573;49.592;8.662;2022-11-15T13:36:27;429.85;;;405.88;;
11039;SDS011;5573;49.592;8.662;2022-11-15T13:38:57;423.60;;;399.58;;
11039;SDS011;5573;49.592;8.662;2022-11-15T13:41:28;424.80;;;401.15;;
11039;SDS011;5573;49.592;8.662;2022-11-15T13:43:56;444.50;;;419.65;;
11039;SDS011;5573;49.592;8.662;2022-11-15T13:46:27;424.35;;;400.55;;
11039;SDS011;5573;49.592;8.662;2022-11-15T13:48:56;431.33;;;406.50;;
11039;SDS011;5573;49.592;8.662;2022-11-15T13:51:28;434.63;;;409.65;;
11039;SDS011;5573;49.592;8.662;2022-11-15T13:54:02;438.30;;;413.27;;
11039;SDS011;5573;49.592;8.662;2022-11-15T13:56:40;446.02;;;420.85;;
11039;SDS011;5573;49.592;8.662;2022-11-15T13:59:13;446.38;;;420.75;;
11039;SDS011;5573;49.592;8.662;2022-11-15T14:01:47;430.08;;;405.70;;
11039;SDS011;5573;49.592;8.662;2022-11-15T14:04:17;444.85;;;419.77;;
11039;SDS011;5573;49.592;8.662;2022-11-15T14:06:48;485.20;;;457.92;;
11039;SDS011;5573;49.592;8.662;2022-11-15T14:12:23;461.38;;;435.20;;
11039;SDS011;5573;49.592;8.662;2022-11-15T14:14:54;452.98;;;427.25;;
11039;SDS011;5573;49.592;8.662;2022-11-15T14:17:34;478.95;;;451.88;;
11039;SDS011;5573;49.592;8.662;2022-11-15T14:20:19;465.02;;;438.85;;
11039;SDS011;5573;49.592;8.662;2022-11-15T14:22:53;443.20;;;418.02;;
11039;SDS011;5573;49.592;8.662;2022-11-15T14:25:22;467.13;;;440.88;;
11039;SDS011;5573;49.592;8.662;2022-11-15T14:28:10;470.02;;;443.10;;
11039;SDS011;5573;49.592;8.662;2022-11-15T14:30:40;466.00;;;439.50;;
11039;SDS011;5573;49.592;8.662;2022-11-15T14:33:21;435.67;;;410.08;;
11039;SDS011;5573;49.592;8.662;2022-11-15T14:35:51;444.63;;;418.95;;
11039;SDS011;5573;49.592;8.662;2022-11-15T14:38:19;455.67;;;429.40;;
11039;SDS011;5573;49.592;8.662;2022-11-15T14:40:47;467.75;;;440.83;;
11039;SDS011;5573;49.592;8.662;2022-11-15T14:43:15;459.05;;;432.67;;
11039;SDS011;5573;49.592;8.662;2022-11-15T14:45:42;440.10;;;415.13;;
11039;SDS011;5573;49.592;8.662;2022-11-15T14:48:10;444.85;;;419.60;;
11039;SDS011;5573;49.592;8.662;2022-11-15T14:50:39;454.23;;;428.33;;
11039;SDS011;5573;49.592;8.662;2022-11-15T14:53:11;429.48;;;404.42;;
11039;SDS011;5573;49.592;8.662;2022-11-15T14:55:40;477.95;;;451.10;;
11039;SDS011;5573;49.592;8.662;2022-11-15T14:58:07;474.73;;;447.58;;
11039;SDS011;5573;49.592;8.662;2022-11-15T15:00:35;453.17;;;427.02;;
11039;SDS011;5573;49.592;8.662;2022-11-15T15:03:05;463.45;;;436.85;;
11039;SDS011;5573;49.592;8.662;2022-11-15T15:05:34;453.67;;;427.75;;
11039;SDS011;5573;49.592;8.662;2022-11-15T15:08:05;451.63;;;426.02;;
11039;SDS011;5573;49.592;8.662;2022-11-15T15:10:34;442.65;;;417.77;;
11039;SDS011;5573;49.592;8.662;2022-11-15T15:13:08;482.88;;;455.13;;
11039;SDS011;5573;49.592;8.662;2022-11-15T15:15:43;467.70;;;440.58;;
11039;SDS011;5573;49.592;8.662;2022-11-15T15:18:11;445.15;;;419.58;;
11039;SDS011;5573;49.592;8.662;2022-11-15T15:20:39;463.20;;;436.42;;
11039;SDS011;5573;49.592;8.662;2022-11-15T15:23:12;457.73;;;431.42;;
11039;SDS011;5573;49.592;8.662;2022-11-15T15:25:42;446.40;;;421.05;;
11039;SDS011;5573;49.592;8.662;2022-11-15T15:28:11;436.00;;;411.10;;
11039;SDS011;5573;49.592;8.662;2022-11-15T15:30:40;459.52;;;432.50;;
11039;SDS011;5573;49.592;8.662;2022-11-15T15:33:08;455.88;;;429.77;;
11039;SDS011;5573;49.592;8.662;2022-11-15T15:35:35;477.80;;;451.05;;
11039;SDS011;5573;49.592;8.662;2022-11-15T15:38:03;475.63;;;448.63;;
11039;SDS011;5573;49.592;8.662;2022-11-15T15:40:32;459.70;;;433.83;;
11039;SDS011;5573;49.592;8.662;2022-11-15T15:43:00;436.08;;;411.55;;
11039;SDS011;5573;49.592;8.662;2022-11-15T15:45:28;453.92;;;428.05;;
11039;SDS011;5573;49.592;8.662;2022-11-15T15:47:56;453.85;;;428.40;;
11039;SDS011;5573;49.592;8.662;2022-11-15T15:50:24;437.30;;;411.75;;
11039;SDS011;5573;49.592;8.662;2022-11-15T15:52:55;465.92;;;438.50;;
11039;SDS011;5573;49.592;8.662;2022-11-15T15:55:24;446.08;;;420.20;;
11039;SDS011;5573;49.592;8.662;2022-11-15T15:57:53;461.85;;;435.15;;
11039;SDS011;5573;49.592;8.662;2022-11-15T16:00:23;452.05;;;425.90;;
11039;SDS011;5573;49.592;8.662;2022-11-15T16:02:52;464.55;;;437.00;;
11039;SDS011;5573;49.592;8.662;2022-11-15T16:05:20;448.23;;;422.20;;
11039;SDS011;5573;49.592;8.662;2022-11-15T16:07:48;449.20;;;423.63;;
11039;SDS011;5573;49.592;8.662;2022-11-15T16:10:17;461.10;;;435.05;;
11039;SDS011;5573;49.592;8.662;2022-11-15T16:12:47;440.67;;;415.27;;
11039;SDS011;5573;49.592;8.662;2022-11-15T16:15:16;436.20;;;410.95;;
11039;SDS011;5573;49.592;8.662;2022-11-15T16:17:47;459.40;;;433.48;;
11039;SDS011;5573;49.592;8.662;2022-11-15T16:23:00;458.40;;;432.15;;
11039;SDS011;5573;49.592;8.662;2022-11-15T16:25:37;461.45;;;435.50;;
11039;SDS011;5573;49.592;8.662;2022-11-15T16:28:11;448.80;;;423.02;;
11039;SDS011;5573;49.592;8.662;2022-11-15T16:30:45;447.10;;;421.52;;
11039;SDS011;5573;49.592;8.662;2022-11-15T16:33:19;449.70;;;423.88;;
11039;SDS011;5573;49.592;8.662;2022-11-15T16:35:46;451.85;;;425.85;;
11039;SDS011;5573;49.592;8.662;2022-11-15T16:38:15;450.02;;;423.52;;
11039;SDS011;5573;49.592;8.662;2022-11-15T16:40:43;434.65;;;409.48;;
11039;SDS011;5573;49.592;8.662;2022-11-15T16:43:11;448.10;;;421.85;;
11039;SDS011;5573;49.592;8.662;2022-11-15T16:45:39;451.42;;;425.25;;